sensor_id;sensor_type;location;lat;lon;timestamp;temperature;humidity
76384;SHT30;65204;48.606;7.598;2022-11-27T00:00:03;8.51;77.98
76384;SHT30;65204;48.606;7.598;2022-11-27T00:00:34;8.50;77.96
76384;SHT30;65204;48.606;7.598;2022-11-27T00:01:12;8.53;77.90
76384;SHT30;65204;48.606;7.598;2022-11-27T00:01:43;8.47;77.88
76384;SHT30;65204;48.606;7.598;2022-11-27T00:02:14;8.51;77.94
76384;SHT30;65204;48.606;7.598;2022-11-27T00:02:44;8.53;77.93
76384;SHT30;65204;48.606;7.598;2022-11-27T00:03:14;8.53;77.98
76384;SHT30;65204;48.606;7.598;2022-11-27T00:03:45;8.51;78.02
76384;SHT30;65204;48.606;7.598;2022-11-27T00:04:15;8.51;77.98
76384;SHT30;65204;48.606;7.598;2022-11-27T00:04:46;8.56;77.79
76384;SHT30;65204;48.606;7.598;2022-11-27T00:05:16;8.56;77.96
76384;SHT30;65204;48.606;7.598;2022-11-27T00:05:57;8.53;77.99
76384;SHT30;65204;48.606;7.598;2022-11-27T00:06:28;8.54;77.84
76384;SHT30;65204;48.606;7.598;2022-11-27T00:06:59;8.56;77.77
76384;SHT30;65204;48.606;7.598;2022-11-27T00:07:29;8.56;77.80
76384;SHT30;65204;48.606;7.598;2022-11-27T00:08:00;8.56;77.81
76384;SHT30;65204;48.606;7.598;2022-11-27T00:08:30;8.58;77.62
76384;SHT30;65204;48.606;7.598;2022-11-27T00:09:05;8.57;77.70
76384;SHT30;65204;48.606;7.598;2022-11-27T00:09:36;8.56;77.68
76384;SHT30;65204;48.606;7.598;2022-11-27T00:10:07;8.56;77.65
76384;SHT30;65204;48.606;7.598;2022-11-27T00:10:37;8.54;77.66
76384;SHT30;65204;48.606;7.598;2022-11-27T00:11:10;8.56;77.72
76384;SHT30;65204;48.606;7.598;2022-11-27T00:11:41;8.56;77.64
76384;SHT30;65204;48.606;7.598;2022-11-27T00:12:12;8.54;77.66
76384;SHT30;65204;48.606;7.598;2022-11-27T00:12:42;8.56;77.73
76384;SHT30;65204;48.606;7.598;2022-11-27T00:13:12;8.54;77.75
76384;SHT30;65204;48.606;7.598;2022-11-27T00:13:43;8.54;77.79
76384;SHT30;65204;48.606;7.598;2022-11-27T00:14:15;8.54;77.75
76384;SHT30;65204;48.606;7.598;2022-11-27T00:14:47;8.56;77.77
76384;SHT30;65204;48.606;7.598;2022-11-27T00:15:17;8.57;77.74
76384;SHT30;65204;48.606;7.598;2022-11-27T00:15:47;8.58;77.68
76384;SHT30;65204;48.606;7.598;2022-11-27T00:16:19;8.56;77.65
76384;SHT30;65204;48.606;7.598;2022-11-27T00:16:50;8.56;77.64
76384;SHT30;65204;48.606;7.598;2022-11-27T00:17:20;8.57;77.69
76384;SHT30;65204;48.606;7.598;2022-11-27T00:17:51;8.57;77.64
76384;SHT30;65204;48.606;7.598;2022-11-27T00:18:21;8.57;77.65
76384;SHT30;65204;48.606;7.598;2022-11-27T00:18:52;8.60;77.63
76384;SHT30;65204;48.606;7.598;2022-11-27T00:19:22;8.60;77.66
76384;SHT30;65204;48.606;7.598;2022-11-27T00:19:52;8.61;77.60
76384;SHT30;65204;48.606;7.598;2022-11-27T00:20:23;8.60;77.60
76384;SHT30;65204;48.606;7.598;2022-11-27T00:20:53;8.61;77.60
76384;SHT30;65204;48.606;7.598;2022-11-27T00:21:26;8.60;77.50
76384;SHT30;65204;48.606;7.598;2022-11-27T00:21:57;8.61;77.50
76384;SHT30;65204;48.606;7.598;2022-11-27T00:22:27;8.65;77.47
76384;SHT30;65204;48.606;7.598;2022-11-27T00:22:58;8.64;77.43
76384;SHT30;65204;48.606;7.598;2022-11-27T00:23:28;8.65;77.36
76384;SHT30;65204;48.606;7.598;2022-11-27T00:24:00;8.64;77.28
76384;SHT30;65204;48.606;7.598;2022-11-27T00:24:31;8.68;77.36
76384;SHT30;65204;48.606;7.598;2022-11-27T00:25:01;8.67;77.30
76384;SHT30;65204;48.606;7.598;2022-11-27T00:25:31;8.67;77.29
76384;SHT30;65204;48.606;7.598;2022-11-27T00:26:03;8.70;77.35
76384;SHT30;65204;48.606;7.598;2022-11-27T00:26:34;8.68;77.27
76384;SHT30;65204;48.606;7.598;2022-11-27T00:27:04;8.68;77.27
76384;SHT30;65204;48.606;7.598;2022-11-27T00:27:35;8.67;77.26
76384;SHT30;65204;48.606;7.598;2022-11-27T00:28:05;8.67;77.37
76384;SHT30;65204;48.606;7.598;2022-11-27T00:28:36;8.70;77.40
76384;SHT30;65204;48.606;7.598;2022-11-27T00:29:07;8.68;77.39
76384;SHT30;65204;48.606;7.598;2022-11-27T00:29:38;8.67;77.37
76384;SHT30;65204;48.606;7.598;2022-11-27T00:30:08;8.67;77.39
76384;SHT30;65204;48.606;7.598;2022-11-27T00:30:39;8.71;77.34
76384;SHT30;65204;48.606;7.598;2022-11-27T00:31:17;8.70;77.40
76384;SHT30;65204;48.606;7.598;2022-11-27T00:31:48;8.71;77.37
76384;SHT30;65204;48.606;7.598;2022-11-27T00:32:18;8.72;77.36
76384;SHT30;65204;48.606;7.598;2022-11-27T00:32:49;8.72;77.38
76384;SHT30;65204;48.606;7.598;2022-11-27T00:33:19;8.72;77.27
76384;SHT30;65204;48.606;7.598;2022-11-27T00:33:53;8.72;77.31
76384;SHT30;65204;48.606;7.598;2022-11-27T00:34:23;8.72;77.28
76384;SHT30;65204;48.606;7.598;2022-11-27T00:34:53;8.71;77.34
76384;SHT30;65204;48.606;7.598;2022-11-27T00:35:24;8.74;77.32
76384;SHT30;65204;48.606;7.598;2022-11-27T00:35:54;8.72;77.31
76384;SHT30;65204;48.606;7.598;2022-11-27T00:36:26;8.75;77.30
76384;SHT30;65204;48.606;7.598;2022-11-27T00:36:57;8.72;77.30
76384;SHT30;65204;48.606;7.598;2022-11-27T00:37:27;8.74;77.29
76384;SHT30;65204;48.606;7.598;2022-11-27T00:37:57;8.77;77.21
76384;SHT30;65204;48.606;7.598;2022-11-27T00:38:28;8.78;77.16
76384;SHT30;65204;48.606;7.598;2022-11-27T00:38:59;8.78;77.14
76384;SHT30;65204;48.606;7.598;2022-11-27T00:39:29;8.74;77.15
76384;SHT30;65204;48.606;7.598;2022-11-27T00:40:00;8.78;77.16
76384;SHT30;65204;48.606;7.598;2022-11-27T00:40:30;8.75;77.15
76384;SHT30;65204;48.606;7.598;2022-11-27T00:41:08;8.78;77.17
76384;SHT30;65204;48.606;7.598;2022-11-27T00:41:39;8.78;77.04
76384;SHT30;65204;48.606;7.598;2022-11-27T00:42:09;8.78;77.04
76384;SHT30;65204;48.606;7.598;2022-11-27T00:42:39;8.80;77.04
76384;SHT30;65204;48.606;7.598;2022-11-27T00:43:10;8.78;76.99
76384;SHT30;65204;48.606;7.598;2022-11-27T00:43:40;8.80;77.03
76384;SHT30;65204;48.606;7.598;2022-11-27T00:44:13;8.80;77.04
76384;SHT30;65204;48.606;7.598;2022-11-27T00:44:44;8.78;77.10
76384;SHT30;65204;48.606;7.598;2022-11-27T00:45:14;8.77;77.08
76384;SHT30;65204;48.606;7.598;2022-11-27T00:45:48;8.81;77.08
76384;SHT30;65204;48.606;7.598;2022-11-27T00:46:28;8.80;77.05
76384;SHT30;65204;48.606;7.598;2022-11-27T00:46:58;8.78;77.07
76384;SHT30;65204;48.606;7.598;2022-11-27T00:47:29;8.77;77.19
76384;SHT30;65204;48.606;7.598;2022-11-27T00:47:59;8.77;77.16
76384;SHT30;65204;48.606;7.598;2022-11-27T00:48:30;8.80;77.15
76384;SHT30;65204;48.606;7.598;2022-11-27T00:49:03;8.78;77.18
76384;SHT30;65204;48.606;7.598;2022-11-27T00:49:34;8.75;77.23
76384;SHT30;65204;48.606;7.598;2022-11-27T00:50:05;8.77;77.22
76384;SHT30;65204;48.606;7.598;2022-11-27T00:50:35;8.80;77.22
76384;SHT30;65204;48.606;7.598;2022-11-27T00:51:08;8.80;77.23
76384;SHT30;65204;48.606;7.598;2022-11-27T00:51:39;8.78;77.18
76384;SHT30;65204;48.606;7.598;2022-11-27T00:52:09;8.82;77.25
76384;SHT30;65204;48.606;7.598;2022-11-27T00:52:39;8.77;77.24
76384;SHT30;65204;48.606;7.598;2022-11-27T00:53:10;8.81;77.26
76384;SHT30;65204;48.606;7.598;2022-11-27T00:53:41;8.78;77.20
76384;SHT30;65204;48.606;7.598;2022-11-27T00:54:12;8.77;77.23
76384;SHT30;65204;48.606;7.598;2022-11-27T00:54:43;8.77;77.23
76384;SHT30;65204;48.606;7.598;2022-11-27T00:55:13;8.77;77.14
76384;SHT30;65204;48.606;7.598;2022-11-27T00:55:45;8.72;77.11
76384;SHT30;65204;48.606;7.598;2022-11-27T00:56:18;8.75;77.13
76384;SHT30;65204;48.606;7.598;2022-11-27T00:56:49;8.75;77.07
76384;SHT30;65204;48.606;7.598;2022-11-27T00:57:19;8.74;76.99
76384;SHT30;65204;48.606;7.598;2022-11-27T00:57:50;8.74;77.02
76384;SHT30;65204;48.606;7.598;2022-11-27T00:58:21;8.74;77.06
76384;SHT30;65204;48.606;7.598;2022-11-27T00:58:52;8.71;76.91
76384;SHT30;65204;48.606;7.598;2022-11-27T00:59:22;8.71;76.87
76384;SHT30;65204;48.606;7.598;2022-11-27T00:59:53;8.72;76.93
76384;SHT30;65204;48.606;7.598;2022-11-27T01:00:23;8.72;76.96
76384;SHT30;65204;48.606;7.598;2022-11-27T01:00:58;8.72;77.04
76384;SHT30;65204;48.606;7.598;2022-11-27T01:01:31;8.72;76.99
76384;SHT30;65204;48.606;7.598;2022-11-27T01:02:02;8.71;77.04
76384;SHT30;65204;48.606;7.598;2022-11-27T01:02:32;8.71;77.08
76384;SHT30;65204;48.606;7.598;2022-11-27T01:03:03;8.68;77.11
76384;SHT30;65204;48.606;7.598;2022-11-27T01:03:34;8.70;77.07
76384;SHT30;65204;48.606;7.598;2022-11-27T01:04:06;8.70;77.08
76384;SHT30;65204;48.606;7.598;2022-11-27T01:04:37;8.68;77.04
76384;SHT30;65204;48.606;7.598;2022-11-27T01:05:07;8.70;77.06
76384;SHT30;65204;48.606;7.598;2022-11-27T01:05:38;8.68;77.13
76384;SHT30;65204;48.606;7.598;2022-11-27T01:06:08;8.68;77.04
76384;SHT30;65204;48.606;7.598;2022-11-27T01:06:39;8.72;77.10
76384;SHT30;65204;48.606;7.598;2022-11-27T01:07:10;8.67;77.15
76384;SHT30;65204;48.606;7.598;2022-11-27T01:07:41;8.70;77.21
76384;SHT30;65204;48.606;7.598;2022-11-27T01:08:11;8.70;76.99
76384;SHT30;65204;48.606;7.598;2022-11-27T01:08:42;8.67;76.98
76384;SHT30;65204;48.606;7.598;2022-11-27T01:09:13;8.68;77.07
76384;SHT30;65204;48.606;7.598;2022-11-27T01:09:43;8.68;77.13
76384;SHT30;65204;48.606;7.598;2022-11-27T01:10:13;8.68;77.09
76384;SHT30;65204;48.606;7.598;2022-11-27T01:10:55;8.68;77.00
76384;SHT30;65204;48.606;7.598;2022-11-27T01:11:28;8.68;77.09
76384;SHT30;65204;48.606;7.598;2022-11-27T01:11:59;8.70;77.01
76384;SHT30;65204;48.606;7.598;2022-11-27T01:12:29;8.70;76.98
76384;SHT30;65204;48.606;7.598;2022-11-27T01:13:00;8.67;76.91
76384;SHT30;65204;48.606;7.598;2022-11-27T01:13:34;8.65;76.86
76384;SHT30;65204;48.606;7.598;2022-11-27T01:14:08;8.65;76.76
76384;SHT30;65204;48.606;7.598;2022-11-27T01:14:39;8.65;76.83
76384;SHT30;65204;48.606;7.598;2022-11-27T01:15:10;8.65;76.73
76384;SHT30;65204;48.606;7.598;2022-11-27T01:15:40;8.65;76.66
76384;SHT30;65204;48.606;7.598;2022-11-27T01:16:15;8.63;76.64
76384;SHT30;65204;48.606;7.598;2022-11-27T01:16:46;8.63;76.71
76384;SHT30;65204;48.606;7.598;2022-11-27T01:17:16;8.64;76.71
76384;SHT30;65204;48.606;7.598;2022-11-27T01:17:46;8.61;76.66
76384;SHT30;65204;48.606;7.598;2022-11-27T01:18:17;8.63;76.63
76384;SHT30;65204;48.606;7.598;2022-11-27T01:18:48;8.60;76.64
76384;SHT30;65204;48.606;7.598;2022-11-27T01:19:19;8.58;76.68
76384;SHT30;65204;48.606;7.598;2022-11-27T01:19:49;8.58;76.82
76384;SHT30;65204;48.606;7.598;2022-11-27T01:20:20;8.60;76.71
76384;SHT30;65204;48.606;7.598;2022-11-27T01:20:53;8.60;76.72
76384;SHT30;65204;48.606;7.598;2022-11-27T01:21:27;8.60;76.75
76384;SHT30;65204;48.606;7.598;2022-11-27T01:21:58;8.60;76.77
76384;SHT30;65204;48.606;7.598;2022-11-27T01:22:29;8.58;76.73
76384;SHT30;65204;48.606;7.598;2022-11-27T01:22:59;8.57;76.75
76384;SHT30;65204;48.606;7.598;2022-11-27T01:23:30;8.58;76.77
76384;SHT30;65204;48.606;7.598;2022-11-27T01:24:03;8.57;76.75
76384;SHT30;65204;48.606;7.598;2022-11-27T01:24:34;8.60;76.73
76384;SHT30;65204;48.606;7.598;2022-11-27T01:25:05;8.60;76.83
76384;SHT30;65204;48.606;7.598;2022-11-27T01:25:35;8.57;76.93
76384;SHT30;65204;48.606;7.598;2022-11-27T01:26:08;8.57;76.91
76384;SHT30;65204;48.606;7.598;2022-11-27T01:26:39;8.57;76.85
76384;SHT30;65204;48.606;7.598;2022-11-27T01:27:09;8.58;76.81
76384;SHT30;65204;48.606;7.598;2022-11-27T01:27:40;8.57;76.82
76384;SHT30;65204;48.606;7.598;2022-11-27T01:28:10;8.54;76.77
76384;SHT30;65204;48.606;7.598;2022-11-27T01:28:41;8.53;76.88
76384;SHT30;65204;48.606;7.598;2022-11-27T01:29:12;8.51;76.84
76384;SHT30;65204;48.606;7.598;2022-11-27T01:29:42;8.54;76.81
76384;SHT30;65204;48.606;7.598;2022-11-27T01:30:13;8.50;76.83
76384;SHT30;65204;48.606;7.598;2022-11-27T01:30:43;8.54;76.85
76384;SHT30;65204;48.606;7.598;2022-11-27T01:31:19;8.53;76.70
76384;SHT30;65204;48.606;7.598;2022-11-27T01:31:50;8.53;76.64
76384;SHT30;65204;48.606;7.598;2022-11-27T01:32:20;8.54;76.46
76384;SHT30;65204;48.606;7.598;2022-11-27T01:32:50;8.56;76.55
76384;SHT30;65204;48.606;7.598;2022-11-27T01:33:21;8.54;76.50
76384;SHT30;65204;48.606;7.598;2022-11-27T01:33:54;8.56;76.51
76384;SHT30;65204;48.606;7.598;2022-11-27T01:34:24;8.56;76.42
76384;SHT30;65204;48.606;7.598;2022-11-27T01:34:55;8.56;76.40
76384;SHT30;65204;48.606;7.598;2022-11-27T01:35:25;8.57;76.60
76384;SHT30;65204;48.606;7.598;2022-11-27T01:36:01;8.56;76.52
76384;SHT30;65204;48.606;7.598;2022-11-27T01:36:32;8.56;76.40
76384;SHT30;65204;48.606;7.598;2022-11-27T01:37:03;8.54;76.44
76384;SHT30;65204;48.606;7.598;2022-11-27T01:37:33;8.54;76.53
76384;SHT30;65204;48.606;7.598;2022-11-27T01:38:03;8.53;76.33
76384;SHT30;65204;48.606;7.598;2022-11-27T01:38:34;8.53;76.32
76384;SHT30;65204;48.606;7.598;2022-11-27T01:39:05;8.54;76.40
76384;SHT30;65204;48.606;7.598;2022-11-27T01:39:35;8.56;76.42
76384;SHT30;65204;48.606;7.598;2022-11-27T01:40:06;8.54;76.31
76384;SHT30;65204;48.606;7.598;2022-11-27T01:40:36;8.57;76.34
76384;SHT30;65204;48.606;7.598;2022-11-27T01:41:23;8.56;76.30
76384;SHT30;65204;48.606;7.598;2022-11-27T01:41:55;8.56;76.33
76384;SHT30;65204;48.606;7.598;2022-11-27T01:42:25;8.57;76.20
76384;SHT30;65204;48.606;7.598;2022-11-27T01:42:55;8.56;76.18
76384;SHT30;65204;48.606;7.598;2022-11-27T01:44:55;8.50;76.28
76384;SHT30;65204;48.606;7.598;2022-11-27T01:45:25;8.50;76.35
76384;SHT30;65204;48.606;7.598;2022-11-27T01:45:55;8.50;76.43
76384;SHT30;65204;48.606;7.598;2022-11-27T01:46:43;8.50;76.46
76384;SHT30;65204;48.606;7.598;2022-11-27T01:47:36;8.49;76.47
76384;SHT30;65204;48.606;7.598;2022-11-27T01:48:10;8.47;76.60
76384;SHT30;65204;48.606;7.598;2022-11-27T01:48:42;8.46;76.71
76384;SHT30;65204;48.606;7.598;2022-11-27T01:50:04;8.44;76.77
76384;SHT30;65204;48.606;7.598;2022-11-27T01:50:38;8.44;76.86
76384;SHT30;65204;48.606;7.598;2022-11-27T01:51:08;8.43;76.85
76384;SHT30;65204;48.606;7.598;2022-11-27T01:52:31;8.43;76.92
76384;SHT30;65204;48.606;7.598;2022-11-27T01:53:16;8.41;76.87
76384;SHT30;65204;48.606;7.598;2022-11-27T01:53:49;8.41;77.01
76384;SHT30;65204;48.606;7.598;2022-11-27T01:54:25;8.41;77.05
76384;SHT30;65204;48.606;7.598;2022-11-27T01:55:53;8.40;76.89
76384;SHT30;65204;48.606;7.598;2022-11-27T01:56:03;8.41;76.99
76384;SHT30;65204;48.606;7.598;2022-11-27T01:56:34;8.41;77.01
76384;SHT30;65204;48.606;7.598;2022-11-27T01:57:18;8.41;77.00
76384;SHT30;65204;48.606;7.598;2022-11-27T01:57:54;8.39;77.07
76384;SHT30;65204;48.606;7.598;2022-11-27T01:58:27;8.40;77.04
76384;SHT30;65204;48.606;7.598;2022-11-27T01:58:59;8.41;77.13
76384;SHT30;65204;48.606;7.598;2022-11-27T01:59:31;8.39;76.93
76384;SHT30;65204;48.606;7.598;2022-11-27T02:00:03;8.40;76.87
76384;SHT30;65204;48.606;7.598;2022-11-27T02:00:35;8.39;76.98
76384;SHT30;65204;48.606;7.598;2022-11-27T02:01:05;8.37;76.91
76384;SHT30;65204;48.606;7.598;2022-11-27T02:01:36;8.37;76.96
76384;SHT30;65204;48.606;7.598;2022-11-27T02:02:07;8.36;77.00
76384;SHT30;65204;48.606;7.598;2022-11-27T02:02:38;8.33;77.03
76384;SHT30;65204;48.606;7.598;2022-11-27T02:03:08;8.36;77.07
76384;SHT30;65204;48.606;7.598;2022-11-27T02:03:39;8.34;76.92
76384;SHT30;65204;48.606;7.598;2022-11-27T02:04:09;8.37;76.91
76384;SHT30;65204;48.606;7.598;2022-11-27T02:04:40;8.39;76.91
76384;SHT30;65204;48.606;7.598;2022-11-27T02:05:15;8.37;76.78
76384;SHT30;65204;48.606;7.598;2022-11-27T02:05:46;8.34;76.91
76384;SHT30;65204;48.606;7.598;2022-11-27T02:06:16;8.37;77.01
76384;SHT30;65204;48.606;7.598;2022-11-27T02:06:47;8.39;77.09
76384;SHT30;65204;48.606;7.598;2022-11-27T02:07:17;8.37;76.93
76384;SHT30;65204;48.606;7.598;2022-11-27T02:07:49;8.39;77.00
76384;SHT30;65204;48.606;7.598;2022-11-27T02:08:20;8.39;76.92
76384;SHT30;65204;48.606;7.598;2022-11-27T02:08:51;8.39;76.89
76384;SHT30;65204;48.606;7.598;2022-11-27T02:09:21;8.37;76.95
76384;SHT30;65204;48.606;7.598;2022-11-27T02:09:52;8.37;77.02
76384;SHT30;65204;48.606;7.598;2022-11-27T02:10:38;8.39;76.96
76384;SHT30;65204;48.606;7.598;2022-11-27T02:12:43;8.40;76.79
76384;SHT30;65204;48.606;7.598;2022-11-27T02:13:03;8.44;76.80
76384;SHT30;65204;48.606;7.598;2022-11-27T02:13:41;8.46;76.78
76384;SHT30;65204;48.606;7.598;2022-11-27T02:15:10;8.41;76.83
76384;SHT30;65204;48.606;7.598;2022-11-27T02:16:50;8.40;76.88
76384;SHT30;65204;48.606;7.598;2022-11-27T02:17:35;8.41;77.04
76384;SHT30;65204;48.606;7.598;2022-11-27T02:18:21;8.40;77.08
76384;SHT30;65204;48.606;7.598;2022-11-27T02:21:13;8.39;77.11
76384;SHT30;65204;48.606;7.598;2022-11-27T02:21:51;8.39;77.15
76384;SHT30;65204;48.606;7.598;2022-11-27T02:24:01;8.39;76.91
76384;SHT30;65204;48.606;7.598;2022-11-27T02:25:01;8.36;76.95
76384;SHT30;65204;48.606;7.598;2022-11-27T02:26:48;8.36;77.08
76384;SHT30;65204;48.606;7.598;2022-11-27T02:28:01;8.34;76.98
76384;SHT30;65204;48.606;7.598;2022-11-27T02:29:22;8.34;77.02
76384;SHT30;65204;48.606;7.598;2022-11-27T02:29:56;8.27;76.99
76384;SHT30;65204;48.606;7.598;2022-11-27T02:30:34;8.30;76.81
76384;SHT30;65204;48.606;7.598;2022-11-27T02:31:15;8.29;76.78
76384;SHT30;65204;48.606;7.598;2022-11-27T02:32:22;8.27;76.78
76384;SHT30;65204;48.606;7.598;2022-11-27T02:32:58;8.30;76.68
76384;SHT30;65204;48.606;7.598;2022-11-27T02:33:32;8.27;76.71
76384;SHT30;65204;48.606;7.598;2022-11-27T02:35:00;8.27;76.90
76384;SHT30;65204;48.606;7.598;2022-11-27T02:35:41;8.23;76.93
76384;SHT30;65204;48.606;7.598;2022-11-27T02:36:18;8.26;76.92
76384;SHT30;65204;48.606;7.598;2022-11-27T02:37:00;8.25;76.88
76384;SHT30;65204;48.606;7.598;2022-11-27T02:37:45;8.25;76.93
76384;SHT30;65204;48.606;7.598;2022-11-27T02:39:00;8.23;77.05
76384;SHT30;65204;48.606;7.598;2022-11-27T02:39:39;8.22;76.98
76384;SHT30;65204;48.606;7.598;2022-11-27T02:40:15;8.22;76.87
76384;SHT30;65204;48.606;7.598;2022-11-27T02:41:00;8.22;76.83
76384;SHT30;65204;48.606;7.598;2022-11-27T02:41:43;8.25;76.96
76384;SHT30;65204;48.606;7.598;2022-11-27T02:42:20;8.25;76.93
76384;SHT30;65204;48.606;7.598;2022-11-27T02:43:11;8.25;77.00
76384;SHT30;65204;48.606;7.598;2022-11-27T02:43:51;8.23;76.98
76384;SHT30;65204;48.606;7.598;2022-11-27T02:44:22;8.23;76.90
76384;SHT30;65204;48.606;7.598;2022-11-27T02:45:00;8.25;77.13
76384;SHT30;65204;48.606;7.598;2022-11-27T02:45:35;8.23;77.22
76384;SHT30;65204;48.606;7.598;2022-11-27T02:46:09;8.22;77.10
76384;SHT30;65204;48.606;7.598;2022-11-27T02:46:40;8.19;77.18
76384;SHT30;65204;48.606;7.598;2022-11-27T02:47:12;8.19;77.23
76384;SHT30;65204;48.606;7.598;2022-11-27T02:47:46;8.19;77.20
76384;SHT30;65204;48.606;7.598;2022-11-27T02:48:20;8.19;77.27
76384;SHT30;65204;48.606;7.598;2022-11-27T02:48:56;8.22;77.30
76384;SHT30;65204;48.606;7.598;2022-11-27T02:49:27;8.22;77.32
76384;SHT30;65204;48.606;7.598;2022-11-27T02:49:59;8.23;77.35
76384;SHT30;65204;48.606;7.598;2022-11-27T02:50:31;8.22;77.36
76384;SHT30;65204;48.606;7.598;2022-11-27T02:51:05;8.25;77.36
76384;SHT30;65204;48.606;7.598;2022-11-27T02:51:40;8.23;77.41
76384;SHT30;65204;48.606;7.598;2022-11-27T02:52:14;8.29;77.36
76384;SHT30;65204;48.606;7.598;2022-11-27T02:52:48;8.26;77.30
76384;SHT30;65204;48.606;7.598;2022-11-27T02:53:23;8.27;77.37
76384;SHT30;65204;48.606;7.598;2022-11-27T02:54:03;8.29;77.45
76384;SHT30;65204;48.606;7.598;2022-11-27T02:54:34;8.29;77.25
76384;SHT30;65204;48.606;7.598;2022-11-27T02:55:07;8.29;77.33
76384;SHT30;65204;48.606;7.598;2022-11-27T02:55:41;8.30;77.41
76384;SHT30;65204;48.606;7.598;2022-11-27T02:56:15;8.29;77.38
76384;SHT30;65204;48.606;7.598;2022-11-27T02:56:48;8.30;77.32
76384;SHT30;65204;48.606;7.598;2022-11-27T02:57:22;8.32;77.33
76384;SHT30;65204;48.606;7.598;2022-11-27T02:57:55;8.30;77.41
76384;SHT30;65204;48.606;7.598;2022-11-27T02:58:28;8.29;77.47
76384;SHT30;65204;48.606;7.598;2022-11-27T02:59:02;8.32;77.42
76384;SHT30;65204;48.606;7.598;2022-11-27T02:59:33;8.30;77.35
76384;SHT30;65204;48.606;7.598;2022-11-27T03:00:06;8.33;77.27
76384;SHT30;65204;48.606;7.598;2022-11-27T03:00:38;8.34;77.31
76384;SHT30;65204;48.606;7.598;2022-11-27T03:01:10;8.33;77.32
76384;SHT30;65204;48.606;7.598;2022-11-27T03:01:45;8.30;77.46
76384;SHT30;65204;48.606;7.598;2022-11-27T03:02:24;8.32;77.41
76384;SHT30;65204;48.606;7.598;2022-11-27T03:02:59;8.34;77.48
76384;SHT30;65204;48.606;7.598;2022-11-27T03:03:37;8.36;77.39
76384;SHT30;65204;48.606;7.598;2022-11-27T03:04:13;8.37;77.33
76384;SHT30;65204;48.606;7.598;2022-11-27T03:04:53;8.36;77.23
76384;SHT30;65204;48.606;7.598;2022-11-27T03:05:28;8.37;77.13
76384;SHT30;65204;48.606;7.598;2022-11-27T03:06:05;8.37;77.08
76384;SHT30;65204;48.606;7.598;2022-11-27T03:06:41;8.36;77.00
76384;SHT30;65204;48.606;7.598;2022-11-27T03:07:24;8.39;76.90
76384;SHT30;65204;48.606;7.598;2022-11-27T03:08:03;8.36;76.93
76384;SHT30;65204;48.606;7.598;2022-11-27T03:08:41;8.36;76.87
76384;SHT30;65204;48.606;7.598;2022-11-27T03:09:20;8.34;76.83
76384;SHT30;65204;48.606;7.598;2022-11-27T03:09:57;8.34;76.67
76384;SHT30;65204;48.606;7.598;2022-11-27T03:10:47;8.33;76.70
76384;SHT30;65204;48.606;7.598;2022-11-27T03:11:20;8.34;76.65
76384;SHT30;65204;48.606;7.598;2022-11-27T03:11:50;8.32;76.67
76384;SHT30;65204;48.606;7.598;2022-11-27T03:12:21;8.33;76.73
76384;SHT30;65204;48.606;7.598;2022-11-27T03:12:51;8.30;76.73
76384;SHT30;65204;48.606;7.598;2022-11-27T03:13:22;8.29;76.73
76384;SHT30;65204;48.606;7.598;2022-11-27T03:13:55;8.27;76.65
76384;SHT30;65204;48.606;7.598;2022-11-27T03:14:27;8.27;76.72
76384;SHT30;65204;48.606;7.598;2022-11-27T03:14:58;8.27;76.60
76384;SHT30;65204;48.606;7.598;2022-11-27T03:15:38;8.29;76.56
76384;SHT30;65204;48.606;7.598;2022-11-27T03:17:17;8.26;76.56
76384;SHT30;65204;48.606;7.598;2022-11-27T03:17:59;8.27;76.50
76384;SHT30;65204;48.606;7.598;2022-11-27T03:19:27;8.26;76.55
76384;SHT30;65204;48.606;7.598;2022-11-27T03:20:40;8.26;76.50
76384;SHT30;65204;48.606;7.598;2022-11-27T03:21:32;8.23;76.41
76384;SHT30;65204;48.606;7.598;2022-11-27T03:22:03;8.23;76.53
76384;SHT30;65204;48.606;7.598;2022-11-27T03:22:34;8.23;76.57
76384;SHT30;65204;48.606;7.598;2022-11-27T03:23:04;8.23;76.55
76384;SHT30;65204;48.606;7.598;2022-11-27T03:23:34;8.23;76.55
76384;SHT30;65204;48.606;7.598;2022-11-27T03:24:09;8.22;76.54
76384;SHT30;65204;48.606;7.598;2022-11-27T03:24:40;8.23;76.54
76384;SHT30;65204;48.606;7.598;2022-11-27T03:25:10;8.22;76.59
76384;SHT30;65204;48.606;7.598;2022-11-27T03:25:40;8.22;76.47
76384;SHT30;65204;48.606;7.598;2022-11-27T03:26:11;8.19;76.48
76384;SHT30;65204;48.606;7.598;2022-11-27T03:26:41;8.19;76.51
76384;SHT30;65204;48.606;7.598;2022-11-27T03:27:14;8.20;76.55
76384;SHT30;65204;48.606;7.598;2022-11-27T03:28:07;8.22;76.62
76384;SHT30;65204;48.606;7.598;2022-11-27T03:28:41;8.22;76.70
76384;SHT30;65204;48.606;7.598;2022-11-27T03:29:17;8.22;76.70
76384;SHT30;65204;48.606;7.598;2022-11-27T03:29:57;8.22;76.56
76384;SHT30;65204;48.606;7.598;2022-11-27T03:30:28;8.23;76.60
76384;SHT30;65204;48.606;7.598;2022-11-27T03:30:59;8.23;76.67
76384;SHT30;65204;48.606;7.598;2022-11-27T03:31:30;8.25;76.72
76384;SHT30;65204;48.606;7.598;2022-11-27T03:32:01;8.26;76.74
76384;SHT30;65204;48.606;7.598;2022-11-27T03:32:31;8.23;76.80
76384;SHT30;65204;48.606;7.598;2022-11-27T03:33:02;8.22;76.98
76384;SHT30;65204;48.606;7.598;2022-11-27T03:33:32;8.23;76.95
76384;SHT30;65204;48.606;7.598;2022-11-27T03:34:03;8.23;76.94
76384;SHT30;65204;48.606;7.598;2022-11-27T03:34:34;8.23;77.10
76384;SHT30;65204;48.606;7.598;2022-11-27T03:35:08;8.22;77.06
76384;SHT30;65204;48.606;7.598;2022-11-27T03:35:40;8.23;77.02
76384;SHT30;65204;48.606;7.598;2022-11-27T03:36:16;8.23;77.00
76384;SHT30;65204;48.606;7.598;2022-11-27T03:36:46;8.23;77.08
76384;SHT30;65204;48.606;7.598;2022-11-27T03:37:17;8.22;76.82
76384;SHT30;65204;48.606;7.598;2022-11-27T03:37:48;8.26;76.80
76384;SHT30;65204;48.606;7.598;2022-11-27T03:38:18;8.26;76.90
76384;SHT30;65204;48.606;7.598;2022-11-27T03:38:50;8.25;76.82
76384;SHT30;65204;48.606;7.598;2022-11-27T03:39:22;8.23;76.89
76384;SHT30;65204;48.606;7.598;2022-11-27T03:39:54;8.23;77.00
76384;SHT30;65204;48.606;7.598;2022-11-27T03:40:40;8.25;76.94
76384;SHT30;65204;48.606;7.598;2022-11-27T03:44:07;8.29;76.84
76384;SHT30;65204;48.606;7.598;2022-11-27T03:44:47;8.29;76.87
76384;SHT30;65204;48.606;7.598;2022-11-27T03:46:22;8.27;76.95
76384;SHT30;65204;48.606;7.598;2022-11-27T03:47:17;8.27;76.91
76384;SHT30;65204;48.606;7.598;2022-11-27T03:48:32;8.25;76.92
76384;SHT30;65204;48.606;7.598;2022-11-27T03:49:15;8.22;76.95
76384;SHT30;65204;48.606;7.598;2022-11-27T03:50:27;8.20;76.88
76384;SHT30;65204;48.606;7.598;2022-11-27T03:52:46;8.23;76.84
76384;SHT30;65204;48.606;7.598;2022-11-27T03:53:09;8.22;76.85
76384;SHT30;65204;48.606;7.598;2022-11-27T03:53:51;8.19;76.90
76384;SHT30;65204;48.606;7.598;2022-11-27T03:54:51;8.17;76.96
76384;SHT30;65204;48.606;7.598;2022-11-27T03:56:02;8.19;76.87
76384;SHT30;65204;48.606;7.598;2022-11-27T03:56:46;8.16;76.89
76384;SHT30;65204;48.606;7.598;2022-11-27T03:57:59;8.16;77.04
76384;SHT30;65204;48.606;7.598;2022-11-27T03:58:34;8.16;77.11
76384;SHT30;65204;48.606;7.598;2022-11-27T03:59:19;8.17;77.16